Terminal Aerodrome Forecast
Issued by NWS

Home | Current Version | Previous Version | Text Only | Print | Product List | Glossary On
Versions: 1 2 3 4 5 6 7 8 9 10 11 12 13 14 15 16 17 18 19
000
FTUS43 KSGF 232300
TAFJLN
TAF
KJLN 232332Z 2400/2424 31010KT P6SM SCT025 OVC040
      TEMPO 2400/2404 BKN025 OVC040
     FM240400 31008KT P6SM OVC020
     FM240900 32010KT 4SM -DZSN BR OVC008
     FM241100 31012KT 2SM -RASN BR OVC007
     FM241600 30012KT 6SM -DZ BR OVC015
     FM241900 29013KT P6SM OVC020=

USA.gov is the U.S. government's official web portal to all federal, state and local government web resources and services.